Time;durP1;ratioP1;P1;durP2;ratioP2;P2;SDS_P1;SDS_P2;PMS_P1;PMS_P2;Temp;Humidity;BMP_temperature;BMP_pressure;BME280_temperature;BME280_humidity;BME280_pressure;Samples;Min_cycle;Max_cycle;Signal;HPM_P1;HPM_P2
2022/07/09 00:00:07;;;;;;;11.65;9.20;;;;;;;22.74;100.00;102691.97;7395216;19;20019;-55
2022/07/09 00:02:39;;;;;;;12.02;9.55;;;;;;;22.49;100.00;102697.19;7395147;19;20019;-53
2022/07/09 00:05:08;;;;;;;12.90;9.48;;;;;;;22.62;100.00;102690.97;7397318;19;20463;-49
2022/07/09 00:07:40;;;;;;;14.07;10.13;;;;;;;22.35;100.00;102687.41;7396978;19;20355;-54
2022/07/09 00:10:10;;;;;;;15.50;11.50;;;;;;;22.27;100.00;102696.75;7395708;19;20019;-50
2022/07/09 00:12:39;;;;;;;15.02;10.38;;;;;;;22.20;100.00;102694.56;7393669;19;20022;-52
2022/07/09 00:15:09;;;;;;;14.23;10.45;;;;;;;22.24;100.00;102699.63;7395506;19;20026;-48
2022/07/09 00:17:38;;;;;;;17.73;10.40;;;;;;;22.25;100.00;102697.78;7396123;19;20014;-51
2022/07/09 00:20:09;;;;;;;16.92;11.10;;;;;;;22.32;100.00;102699.09;7394609;19;20019;-53
2022/07/09 00:22:40;;;;;;;24.58;10.60;;;;;;;22.09;100.00;102701.47;7393721;19;20036;-52
2022/07/09 00:25:09;;;;;;;36.30;11.20;;;;;;;22.01;100.00;102698.41;7395652;19;20045;-50
2022/07/09 00:27:38;;;;;;;15.43;10.32;;;;;;;21.94;100.00;102700.59;7394741;19;20015;-51
2022/07/09 00:30:09;;;;;;;13.73;10.07;;;;;;;21.72;100.00;102703.75;7393888;19;20010;-55
2022/07/09 00:32:39;;;;;;;16.35;11.07;;;;;;;21.92;100.00;102701.66;7393157;19;20476;-51
2022/07/09 00:35:09;;;;;;;16.77;10.75;;;;;;;21.85;100.00;102700.31;7395902;19;20025;-50
2022/07/09 00:37:40;;;;;;;12.90;10.50;;;;;;;21.86;100.00;102694.88;7395517;19;20019;-53
2022/07/09 00:40:10;;;;;;;14.10;10.55;;;;;;;21.72;100.00;102703.75;7394302;19;20014;-49
2022/07/09 00:42:39;;;;;;;15.15;11.10;;;;;;;21.68;100.00;102698.69;7397870;19;20086;-50
2022/07/09 00:45:09;;;;;;;15.50;10.75;;;;;;;21.98;100.00;102695.06;7395057;19;20015;-50
2022/07/09 00:47:38;;;;;;;13.35;9.65;;;;;;;22.12;100.00;102697.72;7394142;19;20021;-50
2022/07/09 00:50:09;;;;;;;12.48;9.25;;;;;;;22.27;100.00;102693.22;7395109;19;20337;-52
2022/07/09 00:52:41;;;;;;;24.65;11.82;;;;;;;22.13;100.00;102691.44;7393129;19;20011;-48
2022/07/09 00:55:11;;;;;;;19.42;12.63;;;;;;;22.22;100.00;102692.66;7395440;19;20029;-49
2022/07/09 00:57:40;;;;;;;14.32;11.07;;;;;;;22.26;100.00;102692.34;7395178;19;20007;-49
2022/07/09 01:00:10;;;;;;;14.70;11.32;;;;;;;21.93;100.00;102688.19;7398618;19;20014;-50
2022/07/09 01:02:39;;;;;;;13.90;11.75;;;;;;;22.04;100.00;102684.88;7393421;19;20023;-51
2022/07/09 01:05:09;;;;;;;17.35;12.80;;;;;;;22.11;100.00;102682.66;7395010;19;20010;-53
2022/07/09 01:07:41;;;;;;;16.05;12.25;;;;;;;22.19;100.00;102677.66;7394574;19;20022;-53
2022/07/09 01:10:11;;;;;;;15.95;11.15;;;;;;;22.29;100.00;102686.84;7392682;19;20023;-50
2022/07/09 01:12:40;;;;;;;21.85;11.00;;;;;;;22.01;100.00;102671.72;7393199;19;20015;-50
2022/07/09 01:15:10;;;;;;;17.63;11.73;;;;;;;22.25;100.00;102669.28;7395655;19;20010;-55
2022/07/09 01:17:42;;;;;;;24.15;12.05;;;;;;;22.34;100.00;102669.66;7398327;19;20015;-53
2022/07/09 01:20:12;;;;;;;16.27;10.70;;;;;;;22.03;100.00;102672.47;7392139;19;20014;-50
2022/07/09 01:22:43;;;;;;;17.67;13.23;;;;;;;22.02;100.00;102668.09;7391678;19;20058;-51
2022/07/09 01:25:17;;;;;;;19.20;12.75;;;;;;;22.15;100.00;102664.63;7393483;19;20015;-51
2022/07/09 01:27:46;;;;;;;17.27;12.18;;;;;;;21.99;100.00;102667.41;7393656;19;20471;-50
2022/07/09 01:30:26;;;;;;;16.98;12.07;;;;;;;21.92;100.00;102666.94;7393616;19;20014;-49
2022/07/09 01:32:55;;;;;;;20.73;12.55;;;;;;;22.03;100.00;102655.59;7390715;19;20039;-47
2022/07/09 01:35:24;;;;;;;13.80;11.82;;;;;;;22.13;100.00;102646.03;7395943;19;20010;-51
2022/07/09 01:37:56;;;;;;;16.38;13.15;;;;;;;22.13;100.00;102644.22;7391432;19;20062;-46
2022/07/09 01:40:26;;;;;;;16.75;11.52;;;;;;;22.22;100.00;102637.44;7391186;19;20033;-47
2022/07/09 01:42:55;;;;;;;18.42;12.35;;;;;;;22.17;100.00;102631.53;7391892;19;20010;-46
2022/07/09 01:45:24;;;;;;;15.20;11.93;;;;;;;22.20;100.00;102631.34;7391061;19;20022;-47
2022/07/09 01:47:53;;;;;;;15.63;11.25;;;;;;;22.33;100.00;102627.91;7391462;19;20475;-46
2022/07/09 01:50:22;;;;;;;19.77;13.02;;;;;;;22.34;100.00;102629.59;7391387;19;20356;-46
2022/07/09 01:52:51;;;;;;;16.83;11.55;;;;;;;22.39;100.00;102627.50;7393989;19;20018;-45
2022/07/09 01:55:22;;;;;;;14.55;11.60;;;;;;;22.37;100.00;102629.41;7390270;19;20475;-47
2022/07/09 01:57:51;;;;;;;16.52;11.05;;;;;;;22.44;100.00;102620.03;7390530;19;20014;-46
2022/07/09 02:00:21;;;;;;;14.93;11.93;;;;;;;22.45;100.00;102627.06;7390371;19;20014;-47
2022/07/09 02:02:50;;;;;;;16.63;11.75;;;;;;;22.40;100.00;102618.53;7390173;19;20103;-46
2022/07/09 02:05:19;;;;;;;16.20;12.55;;;;;;;22.39;100.00;102617.66;7390681;19;20025;-46
2022/07/09 02:07:48;;;;;;;18.38;12.95;;;;;;;22.23;100.00;102620.44;7390333;19;20030;-47
2022/07/09 02:10:17;;;;;;;15.95;12.75;;;;;;;22.30;100.00;102626.25;7393707;19;20023;-47
2022/07/09 02:12:49;;;;;;;22.58;15.52;;;;;;;22.25;100.00;102634.56;7393759;19;20022;-47
2022/07/09 02:15:17;;;;;;;21.40;15.20;;;;;;;22.11;100.00;102637.28;7390653;19;20010;-47
2022/07/09 02:17:46;;;;;;;20.83;14.52;;;;;;;22.17;100.00;102628.88;7390486;19;20018;-47
2022/07/09 02:20:15;;;;;;;16.50;13.38;;;;;;;22.20;100.00;102622.47;7389619;19;20015;-48
2022/07/09 02:22:44;;;;;;;19.85;13.30;;;;;;;22.13;100.00;102614.84;7389901;19;20015;-51
2022/07/09 02:25:13;;;;;;;18.88;13.73;;;;;;;22.05;100.00;102611.84;7390400;19;20026;-49
2022/07/09 02:27:42;;;;;;;15.88;12.90;;;;;;;21.94;100.00;102611.66;7393317;19;20006;-49
2022/07/09 02:30:14;;;;;;;17.73;13.00;;;;;;;21.80;100.00;102603.69;7388880;19;20019;-54
2022/07/09 02:32:43;;;;;;;21.52;12.88;;;;;;;21.86;100.00;102596.13;7388302;19;20022;-48
2022/07/09 02:35:12;;;;;;;18.67;13.70;;;;;;;21.43;100.00;102613.03;7390434;19;20011;-49
2022/07/09 02:37:41;;;;;;;25.08;16.27;;;;;;;21.66;100.00;102620.56;7389680;19;20007;-46
2022/07/09 02:40:14;;;;;;;17.55;13.52;;;;;;;21.83;100.00;102604.34;7388961;19;20014;-48
2022/07/09 02:42:43;;;;;;;16.42;12.82;;;;;;;21.85;100.00;102617.56;7388816;19;20026;-46
2022/07/09 02:45:14;;;;;;;18.67;12.57;;;;;;;21.87;100.00;102629.03;7392745;19;20026;-51
2022/07/09 02:47:43;;;;;;;18.75;13.93;;;;;;;21.74;100.00;102624.47;7389699;19;20359;-45
2022/07/09 02:50:12;;;;;;;22.30;13.88;;;;;;;21.83;100.00;102624.84;7386713;19;20022;-50
2022/07/09 02:52:41;;;;;;;25.80;15.38;;;;;;;21.68;100.00;102629.31;7388407;19;20019;-47
2022/07/09 02:55:10;;;;;;;28.08;17.17;;;;;;;21.84;100.00;102634.56;7389308;19;20015;-50
2022/07/09 02:57:39;;;;;;;23.70;16.27;;;;;;;21.95;100.00;102632.06;7389196;19;20021;-48
2022/07/09 03:00:09;;;;;;;18.38;13.25;;;;;;;22.07;100.00;102628.59;7388586;19;20015;-46
2022/07/09 03:02:41;;;;;;;21.52;11.98;;;;;;;22.01;100.00;102646.81;7391013;19;20015;-45
2022/07/09 03:05:11;;;;;;;19.27;12.65;;;;;;;21.10;100.00;102637.25;7389669;19;20026;-46
2022/07/09 03:07:39;;;;;;;20.55;13.20;;;;;;;21.22;100.00;102635.66;7389195;19;20025;-46
2022/07/09 03:10:09;;;;;;;17.75;12.90;;;;;;;21.30;100.00;102638.72;7386391;19;20011;-48
2022/07/09 03:12:40;;;;;;;17.25;12.13;;;;;;;21.42;100.00;102632.63;7387600;19;20451;-46
2022/07/09 03:15:10;;;;;;;15.52;12.50;;;;;;;21.43;100.00;102631.69;7389234;19;20018;-47
2022/07/09 03:17:41;;;;;;;18.33;13.50;;;;;;;21.23;100.00;102626.69;7389049;19;20010;-46
2022/07/09 03:20:12;;;;;;;20.10;13.77;;;;;;;21.25;100.00;102632.81;7392029;19;20024;-47
2022/07/09 03:22:41;;;;;;;20.33;13.00;;;;;;;20.91;100.00;102626.84;7387795;19;20014;-47
2022/07/09 03:25:11;;;;;;;17.08;12.75;;;;;;;20.88;100.00;102621.69;7389143;19;20014;-45
2022/07/09 03:27:40;;;;;;;17.77;13.60;;;;;;;21.17;100.00;102627.09;7388021;19;20018;-50
2022/07/09 03:30:10;;;;;;;19.38;13.13;;;;;;;21.16;100.00;102625.34;7386687;19;20018;-46
2022/07/09 03:32:42;;;;;;;17.00;13.13;;;;;;;21.34;100.00;102618.06;7387434;19;20045;-46
2022/07/09 03:35:11;;;;;;;17.63;12.93;;;;;;;20.97;100.00;102617.63;7389295;19;20447;-49
2022/07/09 03:37:40;;;;;;;19.38;14.07;;;;;;;21.09;100.00;102612.41;7388060;19;20003;-47
2022/07/09 03:40:10;;;;;;;19.58;13.70;;;;;;;21.14;100.00;102605.94;7387253;19;20018;-46
2022/07/09 03:42:39;;;;;;;19.88;13.20;;;;;;;21.23;100.00;102614.25;7390321;19;20095;-49
2022/07/09 03:45:09;;;;;;;18.77;12.35;;;;;;;21.15;100.00;102615.63;7394294;19;20021;-46
2022/07/09 03:47:38;;;;;;;16.52;13.00;;;;;;;21.05;100.00;102613.53;7395541;19;20014;-49
2022/07/09 03:50:11;;;;;;;16.42;12.32;;;;;;;21.23;100.00;102611.59;7392484;19;20014;-48
2022/07/09 03:52:40;;;;;;;16.45;13.13;;;;;;;21.18;100.00;102618.16;7394533;19;20320;-48
2022/07/09 03:55:10;;;;;;;16.40;12.80;;;;;;;21.40;100.00;102621.19;7394172;19;20347;-46
2022/07/09 03:57:40;;;;;;;14.75;11.68;;;;;;;21.28;100.00;102619.28;7395922;19;20010;-51
2022/07/09 04:00:10;;;;;;;16.08;12.00;;;;;;;21.40;100.00;102618.53;7395086;19;20011;-49
2022/07/09 04:02:42;;;;;;;15.68;11.27;;;;;;;21.25;100.00;102630.16;7394311;19;20023;-46
2022/07/09 04:05:13;;;;;;;15.65;10.90;;;;;;;21.14;100.00;102627.28;7394435;19;20011;-45
2022/07/09 04:07:42;;;;;;;13.57;10.93;;;;;;;20.54;100.00;102611.16;7394934;19;20024;-45
2022/07/09 04:10:12;;;;;;;15.18;11.00;;;;;;;20.69;100.00;102611.25;7396586;19;20033;-46
2022/07/09 04:12:40;;;;;;;16.60;11.85;;;;;;;20.88;100.00;102616.38;7392938;19;20384;-46
2022/07/09 04:15:10;;;;;;;13.50;10.82;;;;;;;21.09;100.00;102606.22;7393998;19;20022;-45
2022/07/09 04:17:39;;;;;;;16.55;11.63;;;;;;;21.07;100.00;102614.28;7395690;19;20451;-47
2022/07/09 04:20:09;;;;;;;15.43;10.98;;;;;;;21.23;100.00;102606.25;7394345;19;20022;-46
2022/07/09 04:22:41;;;;;;;17.90;10.90;;;;;;;21.35;100.00;102601.97;7394472;19;20356;-47
2022/07/09 04:25:10;;;;;;;14.30;10.57;;;;;;;21.55;100.00;102607.88;7395399;19;20040;-47
2022/07/09 04:27:39;;;;;;;16.15;11.63;;;;;;;21.49;100.00;102605.56;7399605;19;20022;-48
2022/07/09 04:30:09;;;;;;;17.25;12.38;;;;;;;21.37;100.00;102602.72;7391805;19;20014;-49
2022/07/09 04:32:39;;;;;;;16.42;11.48;;;;;;;21.55;100.00;102606.09;7393674;19;20432;-47
2022/07/09 04:35:08;;;;;;;16.88;12.23;;;;;;;21.67;100.00;102607.13;7394646;19;20022;-50
2022/07/09 04:37:37;;;;;;;23.25;14.98;;;;;;;21.59;100.00;102604.94;7394590;19;20014;-47
2022/07/09 04:40:10;;;;;;;22.42;12.30;;;;;;;21.68;100.00;102599.97;7393461;19;20370;-47
2022/07/09 04:42:39;;;;;;;17.08;11.50;;;;;;;21.64;100.00;102603.81;7392670;19;20375;-49
2022/07/09 04:45:10;;;;;;;19.02;12.60;;;;;;;21.50;100.00;102599.28;7393240;19;20116;-51
2022/07/09 04:47:39;;;;;;;16.95;12.13;;;;;;;21.76;100.00;102601.22;7394323;19;20022;-49
2022/07/09 04:50:10;;;;;;;20.10;12.20;;;;;;;21.84;100.00;102605.22;7391406;19;20018;-46
2022/07/09 04:52:39;;;;;;;17.60;13.13;;;;;;;21.94;100.00;102595.66;7393035;19;20383;-50
2022/07/09 04:55:12;;;;;;;18.90;14.07;;;;;;;21.90;100.00;102594.13;7391998;19;20595;-48
2022/07/09 04:57:40;;;;;;;21.27;14.43;;;;;;;22.09;100.00;102589.31;7394643;19;20074;-49
2022/07/09 05:00:11;;;;;;;20.33;15.02;;;;;;;21.90;100.00;102583.47;7393437;19;20025;-49
2022/07/09 05:02:41;;;;;;;20.90;14.23;;;;;;;21.87;100.00;102595.19;7392121;19;20483;-46
2022/07/09 05:05:11;;;;;;;19.90;15.02;;;;;;;21.75;100.00;102602.16;7394006;19;20010;-46
2022/07/09 05:07:40;;;;;;;21.95;15.70;;;;;;;21.83;100.00;102598.16;7393233;19;20044;-46
2022/07/09 05:10:12;;;;;;;23.38;16.13;;;;;;;21.71;100.00;102583.78;7394943;19;20034;-47
2022/07/09 05:12:40;;;;;;;22.45;15.70;;;;;;;21.62;100.00;102587.03;7392284;19;20029;-46
2022/07/09 05:15:11;;;;;;;25.38;16.13;;;;;;;21.62;100.00;102587.03;7393889;19;20026;-45
2022/07/09 05:17:40;;;;;;;24.73;17.33;;;;;;;21.73;100.00;102574.69;7394349;19;20003;-46
2022/07/09 05:20:11;;;;;;;27.55;16.65;;;;;;;21.57;100.00;102584.66;7394501;19;20356;-46
2022/07/09 05:22:40;;;;;;;21.73;15.85;;;;;;;21.77;100.00;102573.56;7393836;19;20033;-47
2022/07/09 05:25:12;;;;;;;23.55;17.65;;;;;;;21.81;100.00;102582.25;7393807;19;20015;-45
2022/07/09 05:27:44;;;;;;;26.08;17.75;;;;;;;21.90;100.00;102578.13;7393547;19;20014;-48
2022/07/09 05:30:15;;;;;;;26.85;18.08;;;;;;;21.37;100.00;102580.53;7391171;19;20696;-45
2022/07/09 05:32:44;;;;;;;27.20;17.38;;;;;;;21.46;100.00;102584.44;7393646;19;20329;-45
2022/07/09 05:35:13;;;;;;;26.85;18.17;;;;;;;21.37;100.00;102581.38;7392705;19;20061;-48
2022/07/09 05:37:46;;;;;;;27.73;18.13;;;;;;;21.63;100.00;102583.41;7392234;19;20056;-46
2022/07/09 05:40:18;;;;;;;24.10;16.65;;;;;;;21.81;100.00;102578.69;7392251;19;20696;-47
2022/07/09 05:42:47;;;;;;;25.77;17.80;;;;;;;21.91;100.00;102594.03;7391907;19;20018;-46
2022/07/09 05:45:16;;;;;;;23.60;16.70;;;;;;;22.04;100.00;102596.75;7390961;19;20743;-48
2022/07/09 05:47:45;;;;;;;26.60;17.52;;;;;;;22.17;100.00;102591.47;7393698;19;20033;-47
2022/07/09 05:50:14;;;;;;;24.15;16.88;;;;;;;22.30;100.00;102586.19;7390561;19;20565;-47
2022/07/09 05:52:43;;;;;;;24.05;16.33;;;;;;;22.06;100.00;102584.16;7389306;19;20014;-46
2022/07/09 05:55:12;;;;;;;27.60;17.85;;;;;;;22.00;100.00;102583.72;7392442;19;20014;-47
2022/07/09 05:57:43;;;;;;;25.35;16.48;;;;;;;22.21;100.00;102593.00;7392158;19;20021;-49
2022/07/09 06:00:13;;;;;;;22.52;15.65;;;;;;;22.20;100.00;102585.09;7391283;19;20014;-47
2022/07/09 06:02:42;;;;;;;23.48;16.85;;;;;;;22.35;100.00;102589.47;7390774;19;20018;-47
2022/07/09 06:05:11;;;;;;;22.02;15.95;;;;;;;22.39;100.00;102590.09;7391343;19;20029;-51
2022/07/09 06:07:44;;;;;;;22.20;16.58;;;;;;;22.17;100.00;102594.16;7391675;19;20479;-48
2022/07/09 06:10:16;;;;;;;21.92;15.27;;;;;;;22.40;100.00;102595.34;7389369;19;20109;-47
2022/07/09 06:12:48;;;;;;;21.43;15.20;;;;;;;22.52;100.00;102593.66;7390823;19;20029;-50
2022/07/09 06:15:17;;;;;;;21.88;14.50;;;;;;;22.73;100.00;102591.34;7391289;19;20029;-47
2022/07/09 06:17:45;;;;;;;19.23;14.63;;;;;;;22.58;100.00;102587.91;7391587;19;20007;-49
2022/07/09 06:20:15;;;;;;;19.23;14.73;;;;;;;22.76;100.00;102584.94;7395227;19;20011;-46
2022/07/09 06:22:44;;;;;;;19.15;13.15;;;;;;;22.60;100.00;102577.13;7390081;19;20022;-50
2022/07/09 06:25:13;;;;;;;17.92;12.50;;;;;;;22.71;100.00;102582.59;7391237;19;20018;-53
2022/07/09 06:27:42;;;;;;;18.30;12.43;;;;;;;22.79;100.00;102584.72;7391529;19;20014;-46
2022/07/09 06:30:14;;;;;;;18.02;12.52;;;;;;;22.72;100.00;102586.13;7390284;19;20030;-48
2022/07/09 06:32:43;;;;;;;17.42;12.85;;;;;;;22.70;100.00;102583.56;7392533;19;20022;-48
2022/07/09 06:35:12;;;;;;;19.25;12.95;;;;;;;22.76;100.00;102583.13;7395633;19;20021;-49
2022/07/09 06:37:41;;;;;;;17.45;13.52;;;;;;;22.90;100.00;102587.53;7391423;19;20011;-48
2022/07/09 06:40:12;;;;;;;33.03;14.73;;;;;;;22.89;100.00;102590.31;7391054;19;20018;-48
2022/07/09 06:42:42;;;;;;;20.50;14.15;;;;;;;22.77;100.00;102584.00;7391302;19;20057;-48
2022/07/09 06:45:26;;;;;;;18.77;12.90;;;;;;;22.39;100.00;102579.41;7391232;19;20010;-46
2022/07/09 06:47:55;;;;;;;16.33;11.80;;;;;;;22.52;100.00;102582.97;7392128;19;20018;-51
2022/07/09 06:50:24;;;;;;;19.50;12.02;;;;;;;22.70;100.00;102588.03;7393247;19;20055;-47
2022/07/09 06:52:53;;;;;;;17.40;11.23;;;;;;;22.76;100.00;102585.78;7391045;19;20018;-45
2022/07/09 06:55:22;;;;;;;14.80;10.73;;;;;;;22.78;100.00;102585.69;7392883;19;20443;-46
2022/07/09 06:57:51;;;;;;;14.60;10.98;;;;;;;22.73;100.00;102595.84;7392784;19;20478;-46
2022/07/09 07:00:20;;;;;;;12.85;10.50;;;;;;;22.78;100.00;102591.03;7391250;19;20122;-46
2022/07/09 07:02:51;;;;;;;14.02;9.95;;;;;;;23.03;100.00;102587.53;7389723;19;20188;-49
2022/07/09 07:05:20;;;;;;;15.65;9.52;;;;;;;23.09;100.00;102588.94;7391335;19;20379;-49
2022/07/09 07:07:49;;;;;;;13.60;8.23;;;;;;;23.04;100.00;102585.72;7390177;19;20014;-47
2022/07/09 07:10:18;;;;;;;11.27;7.68;;;;;;;22.90;100.00;102576.00;7389713;19;20017;-49
2022/07/09 07:12:47;;;;;;;12.48;9.00;;;;;;;22.97;100.00;102579.94;7388784;19;20377;-47
2022/07/09 07:15:16;;;;;;;18.70;8.95;;;;;;;22.86;100.00;102580.69;7390425;19;20014;-46
2022/07/09 07:17:45;;;;;;;18.95;10.25;;;;;;;22.88;100.00;102592.13;7393186;19;20051;-48
2022/07/09 07:20:19;;;;;;;14.90;10.18;;;;;;;22.90;100.00;102584.00;7396541;19;20340;-48
2022/07/09 07:22:48;;;;;;;8.70;6.68;;;;;;;23.20;100.00;102583.72;7396017;19;20018;-48
2022/07/09 07:25:17;;;;;;;11.18;7.90;;;;;;;23.25;100.00;102581.56;7396375;19;20479;-46
2022/07/09 07:27:45;;;;;;;10.65;7.63;;;;;;;23.19;100.00;102576.66;7397468;19;20022;-50
2022/07/09 07:30:14;;;;;;;11.73;7.93;;;;;;;23.43;100.00;102575.91;7394839;19;20019;-49
2022/07/09 07:32:43;;;;;;;13.05;6.43;;;;;;;23.44;100.00;102575.78;7393406;19;20014;-51
2022/07/09 07:35:12;;;;;;;11.93;7.55;;;;;;;23.50;100.00;102575.34;7402450;19;20010;-49
2022/07/09 07:37:44;;;;;;;11.63;8.48;;;;;;;23.44;100.00;102583.81;7402441;19;20018;-49
2022/07/09 07:40:14;;;;;;;11.45;9.27;;;;;;;23.41;100.00;102586.72;7398199;19;20021;-49
2022/07/09 07:42:43;;;;;;;12.70;10.00;;;;;;;23.46;100.00;102581.88;7398147;19;20018;-51
2022/07/09 07:45:13;;;;;;;12.32;9.20;;;;;;;23.28;100.00;102578.69;7396863;19;20018;-50
2022/07/09 07:47:42;;;;;;;13.95;8.68;;;;;;;23.24;100.00;102579.88;7398279;19;20503;-50
2022/07/09 07:50:11;;;;;;;11.20;8.18;;;;;;;22.99;100.00;102573.50;7396132;19;20014;-50
2022/07/09 07:52:40;;;;;;;11.80;8.52;;;;;;;23.36;100.00;102574.63;7400973;19;20017;-54
2022/07/09 07:55:12;;;;;;;20.17;8.18;;;;;;;23.51;100.00;102565.47;7397041;19;20018;-53
2022/07/09 07:57:41;;;;;;;11.88;8.20;;;;;;;23.67;100.00;102566.09;7401774;19;20010;-51
2022/07/09 08:00:11;;;;;;;13.88;9.32;;;;;;;23.71;100.00;102572.06;7397170;19;20021;-54
2022/07/09 08:02:42;;;;;;;;;;;;;;;23.97;100.00;102563.97;7397281;19;20119;-49
2022/07/09 08:05:11;;;;;;;12.98;8.73;;;;;;;23.88;100.00;102562.84;7397131;19;19925;-54
2022/07/09 08:07:40;;;;;;;10.27;8.13;;;;;;;24.17;100.00;102555.34;7399619;19;20090;-49
2022/07/09 08:10:12;;;;;;;16.42;9.15;;;;;;;24.35;100.00;102560.28;7396249;19;20011;-51
2022/07/09 08:12:41;;;;;;;18.25;8.65;;;;;;;24.53;100.00;102550.00;7396656;19;20031;-50
2022/07/09 08:15:11;;;;;;;10.93;7.28;;;;;;;24.14;100.00;102541.31;7398309;19;20014;-56
2022/07/09 08:17:40;;;;;;;12.95;7.97;;;;;;;24.48;100.00;102539.59;7397551;19;20023;-54
2022/07/09 08:20:11;;;;;;;8.30;5.93;;;;;;;24.15;99.96;102537.66;7396130;19;20030;-48
2022/07/09 08:22:40;;;;;;;7.57;5.40;;;;;;;24.45;100.00;102544.38;7397192;19;20539;-52
2022/07/09 08:25:12;;;;;;;10.57;5.32;;;;;;;24.65;93.38;102548.22;7395950;19;20014;-52
2022/07/09 08:27:41;;;;;;;7.07;4.95;;;;;;;24.64;91.98;102535.78;7398058;19;20018;-49
2022/07/09 08:30:10;;;;;;;6.38;5.05;;;;;;;24.55;92.34;102536.47;7396207;19;20007;-48
2022/07/09 08:32:39;;;;;;;9.55;5.40;;;;;;;24.58;94.70;102533.56;7398329;19;20025;-49
2022/07/09 08:35:11;;;;;;;7.85;5.43;;;;;;;24.46;94.34;102532.69;7400658;19;20018;-49
2022/07/09 08:37:40;;;;;;;10.80;5.63;;;;;;;24.63;91.25;102534.06;7400799;19;20010;-51
2022/07/09 08:40:12;;;;;;;9.10;5.78;;;;;;;24.42;96.49;102536.56;7400241;19;20010;-52
2022/07/09 08:42:41;;;;;;;;;;;;;;;24.55;94.77;102537.31;7397239;19;20022;-51
2022/07/09 08:45:14;;;;;;;7.82;6.05;;;;;;;24.86;95.84;102530.47;7396930;19;19915;-48
2022/07/09 08:47:44;;;;;;;8.02;5.90;;;;;;;24.93;93.69;102533.53;7396402;19;20510;-49
2022/07/09 08:50:13;;;;;;;9.20;6.32;;;;;;;24.51;94.72;102542.03;7394802;19;20030;-50
2022/07/09 08:52:43;;;;;;;9.93;6.55;;;;;;;24.47;98.79;102532.56;7395332;19;20019;-51
2022/07/09 08:55:15;;;;;;;9.82;6.60;;;;;;;24.85;96.13;102538.63;7400332;19;20033;-49
2022/07/09 08:57:44;;;;;;;15.60;7.40;;;;;;;24.87;92.37;102550.09;7395831;19;20025;-48
2022/07/09 09:00:14;;;;;;;8.93;6.25;;;;;;;24.90;91.56;102535.59;7394203;19;20579;-50
2022/07/09 09:02:43;;;;;;;9.77;6.80;;;;;;;24.93;92.68;102538.03;7393625;19;20033;-48
2022/07/09 09:05:14;;;;;;;12.52;8.13;;;;;;;24.67;95.50;102524.81;7393834;19;20019;-48
2022/07/09 09:07:43;;;;;;;10.48;7.20;;;;;;;24.34;95.00;102539.81;7395610;19;20019;-54
2022/07/09 09:10:25;;;;;;;12.73;7.05;;;;;;;24.63;92.74;102526.91;7397019;19;20099;-52
2022/07/09 09:12:58;;;;;;;13.02;9.38;;;;;;;24.20;95.22;102527.47;7394566;19;20454;-53
2022/07/09 09:15:28;;;;;;;13.82;10.90;;;;;;;24.24;96.53;102526.25;7394982;19;20056;-50
2022/07/09 09:17:57;;;;;;;18.25;10.90;;;;;;;24.53;95.58;102532.06;7395106;19;20048;-51
2022/07/09 09:20:26;;;;;;;16.60;11.63;;;;;;;24.62;96.24;102522.50;7394472;19;20026;-55
2022/07/09 09:22:59;;;;;;;14.35;11.07;;;;;;;25.03;94.56;102529.16;7394104;19;20791;-52
2022/07/09 09:25:31;;;;;;;15.52;12.05;;;;;;;25.15;92.58;102529.16;7396855;19;20014;-53
2022/07/09 09:28:02;;;;;;;16.08;13.35;;;;;;;25.36;91.44;102530.16;7394218;19;20512;-51
2022/07/09 09:30:32;;;;;;;16.75;14.88;;;;;;;25.29;91.21;102530.72;7393064;19;20042;-49
2022/07/09 09:33:03;;;;;;;18.92;16.30;;;;;;;25.03;92.07;102526.47;7393144;19;20025;-52
2022/07/09 09:35:37;;;;;;;17.95;16.13;;;;;;;24.76;94.39;102525.94;7393893;19;20025;-50
2022/07/09 09:38:06;;;;;;;18.95;14.35;;;;;;;25.18;92.49;102534.25;7394337;19;20366;-51
2022/07/09 09:40:39;;;;;;;19.23;17.20;;;;;;;25.26;90.39;102531.84;7393864;19;20048;-50
2022/07/09 09:43:09;;;;;;;19.55;17.60;;;;;;;25.17;90.00;102533.41;7393010;19;20056;-51
2022/07/09 09:45:39;;;;;;;19.30;16.60;;;;;;;24.77;93.84;102531.16;7394147;19;20025;-54
2022/07/09 09:48:08;;;;;;;19.63;17.10;;;;;;;24.58;94.05;102531.72;7394128;19;20011;-50
2022/07/09 09:50:38;;;;;;;15.20;13.60;;;;;;;24.93;93.52;102535.34;7392492;19;20018;-55
2022/07/09 09:53:07;;;;;;;20.85;16.42;;;;;;;24.87;93.56;102534.88;7392574;19;20067;-51
2022/07/09 09:55:39;;;;;;;17.80;15.63;;;;;;;24.68;95.59;102531.91;7395429;19;20033;-50
2022/07/09 09:58:09;;;;;;;16.90;14.82;;;;;;;24.75;96.83;102529.59;7393625;19;20336;-49
2022/07/09 10:00:38;;;;;;;16.58;14.65;;;;;;;24.93;95.18;102529.97;7392948;19;20025;-49
2022/07/09 10:03:08;;;;;;;15.85;13.52;;;;;;;25.22;95.56;102535.72;7392056;19;20355;-54
2022/07/09 10:05:37;;;;;;;15.15;12.70;;;;;;;25.37;92.07;102533.66;7392913;19;20030;-51
2022/07/09 10:08:07;;;;;;;12.43;11.00;;;;;;;25.71;90.62;102531.78;7393764;19;20544;-47
2022/07/09 10:10:39;;;;;;;12.38;10.65;;;;;;;25.31;90.13;102537.69;7393769;19;20047;-49
2022/07/09 10:13:08;;;;;;;12.40;10.55;;;;;;;24.87;94.62;102542.03;7392871;19;20023;-48
2022/07/09 10:15:37;;;;;;;10.77;8.30;;;;;;;25.39;92.64;102537.94;7392405;19;20011;-52
2022/07/09 10:18:13;;;;;;;12.95;9.13;;;;;;;25.60;91.86;102533.66;7392753;19;20482;-52
2022/07/09 10:20:45;;;;;;;8.77;6.63;;;;;;;25.88;89.60;102537.59;7392763;19;20487;-50
2022/07/09 10:23:23;;;;;;;10.50;6.22;;;;;;;25.36;85.75;102540.88;7392325;19;20025;-48
2022/07/09 10:25:55;;;;;;;11.80;5.80;;;;;;;25.38;86.47;102540.75;7392711;19;20092;-50
2022/07/09 10:28:25;;;;;;;24.65;5.68;;;;;;;25.39;82.55;102543.31;7392624;19;20018;-50
2022/07/09 10:30:56;;;;;;;6.53;4.40;;;;;;;25.41;82.52;102550.41;7392489;19;20052;-51
2022/07/09 10:33:32;;;;;;;3.45;3.15;;;;;;;25.56;80.81;102530.34;7393240;19;20019;-48
2022/07/09 10:36:12;;;;;;;4.60;3.22;;;;;;;25.46;79.32;102542.81;7392880;19;20014;-49
2022/07/09 10:38:41;;;;;;;12.23;3.45;;;;;;;25.29;78.88;102542.31;7389743;19;20021;-50
2022/07/09 10:41:23;;;;;;;4.65;3.35;;;;;;;25.59;82.63;102538.16;7392394;19;20027;-50
2022/07/09 10:43:53;;;;;;;3.67;2.58;;;;;;;26.21;79.50;102536.66;7395252;19;20010;-51
2022/07/09 10:46:22;;;;;;;8.80;3.50;;;;;;;26.48;75.97;102543.38;7392358;19;20018;-53
2022/07/09 10:48:51;;;;;;;13.05;3.50;;;;;;;25.41;77.98;102535.13;7390899;19;20015;-50
2022/07/09 10:51:22;;;;;;;4.60;2.90;;;;;;;25.72;80.43;102538.03;7390189;19;20018;-50
2022/07/09 10:53:51;;;;;;;7.05;2.80;;;;;;;26.17;76.65;102521.75;7390217;19;20042;-53
2022/07/09 10:56:24;;;;;;;8.02;2.60;;;;;;;25.95;78.29;102521.81;7391461;19;20007;-52
2022/07/09 10:58:53;;;;;;;5.18;2.88;;;;;;;26.33;74.28;102525.84;7394763;19;20014;-51
2022/07/09 11:01:24;;;;;;;9.20;2.45;;;;;;;26.70;72.86;102517.34;7390916;19;20026;-55
2022/07/09 11:03:53;;;;;;;6.65;2.05;;;;;;;26.98;70.26;102531.94;7389975;19;20018;-52
2022/07/09 11:06:22;;;;;;;3.40;2.00;;;;;;;27.13;68.26;102532.41;7391285;19;20605;-52
2022/07/09 11:08:51;;;;;;;5.18;2.25;;;;;;;27.01;64.21;102526.28;7390349;19;20018;-50
2022/07/09 11:11:26;;;;;;;13.25;2.47;;;;;;;27.01;67.47;102522.72;7391519;19;20471;-51
2022/07/09 11:13:55;;;;;;;9.05;1.90;;;;;;;27.49;64.59;102530.16;7393257;19;20026;-54
2022/07/09 11:16:26;;;;;;;3.67;1.80;;;;;;;27.33;63.62;102525.25;7391274;19;20075;-47
2022/07/09 11:18:57;;;;;;;3.90;1.90;;;;;;;27.13;60.56;102521.66;7390358;19;20022;-51